Time;durP1;ratioP1;P1;durP2;ratioP2;P2;SDS_P1;SDS_P2;PMS_P1;PMS_P2;Temp;Humidity;BMP_temperature;BMP_pressure;BME280_temperature;BME280_humidity;BME280_pressure;Samples;Min_cycle;Max_cycle;Signal;HPM_P1;HPM_P2
2021/10/02 00:44:52;;;;;;;1.23;1.23;;;;;;;;;;5025869;28;20088;-58
2021/10/02 00:47:20;;;;;;;0.80;0.80;;;;;;;;;;5030412;28;20544;-57
2021/10/02 00:49:47;;;;;;;1.10;1.00;;;;;;;;;;5031472;28;20084;-58
2021/10/02 00:52:15;;;;;;;1.10;1.10;;;;;;;;;;5031559;28;20103;-57
2021/10/02 00:54:42;;;;;;;2.80;1.00;;;;;;;;;;5029822;28;20124;-59
2021/10/02 00:57:09;;;;;;;0.90;0.90;;;;;;;;;;5031312;28;20072;-58
2021/10/02 00:59:37;;;;;;;1.20;0.90;;;;;;;;;;5030006;28;20100;-57
2021/10/02 01:02:09;;;;;;;1.25;0.90;;;;;;;;;;5028400;28;20064;-58
2021/10/02 01:04:54;;;;;;;1.90;0.95;;;;;;;;;;5029828;28;20057;-59
2021/10/02 01:07:22;;;;;;;0.90;0.90;;;;;;;;;;5021591;28;20034;-58
2021/10/02 01:09:57;;;;;;;1.00;1.00;;;;;;;;;;5023399;28;20049;-58
2021/10/02 01:12:43;;;;;;;1.73;1.10;;;;;;;;;;5014395;28;20042;-56
2021/10/02 01:15:12;;;;;;;0.90;0.90;;;;;;;;;;5030978;28;20084;-58
2021/10/02 01:17:48;;;;;;;0.85;0.85;;;;;;;;;;5028044;28;20037;-58
2021/10/02 01:20:35;;;;;;;1.88;1.00;;;;;;;;;;5030227;28;20032;-57
2021/10/02 01:23:04;;;;;;;1.85;1.00;;;;;;;;;;5027952;28;20049;-59
2021/10/02 01:25:49;;;;;;;0.93;0.93;;;;;;;;;;5028163;28;20077;-59
2021/10/02 01:28:21;;;;;;;1.10;1.10;;;;;;;;;;5017453;28;20383;-58
2021/10/02 01:47:24;;;;;;;1.58;1.58;;;;;;;;;;5028439;28;20413;-58
2021/10/02 01:49:53;;;;;;;1.30;1.30;;;;;;;;;;5028256;28;20061;-59
2021/10/02 01:52:25;;;;;;;1.30;1.20;;;;;;;;;;5021325;28;20049;-58
2021/10/02 01:54:55;;;;;;;1.40;1.27;;;;;;;;;;5025616;28;20068;-59
2021/10/02 01:57:27;;;;;;;1.13;1.13;;;;;;;;;;5014404;28;20136;-59
2021/10/02 02:00:00;;;;;;;1.17;1.17;;;;;;;;;;5029042;28;20042;-57
2021/10/02 02:02:28;;;;;;;1.00;1.00;;;;;;;;;;5027516;28;20521;-58
2021/10/02 02:04:57;;;;;;;1.60;1.50;;;;;;;;;;5022416;28;20528;-59
2021/10/02 02:07:24;;;;;;;1.63;1.02;;;;;;;;;;5026351;28;20076;-58
2021/10/02 02:09:52;;;;;;;1.00;1.00;;;;;;;;;;5028071;28;20037;-58
2021/10/02 02:12:20;;;;;;;1.20;1.20;;;;;;;;;;5027813;28;20049;-59
2021/10/02 02:14:49;;;;;;;1.50;1.40;;;;;;;;;;5027187;28;20493;-59
2021/10/02 02:17:17;;;;;;;1.10;1.10;;;;;;;;;;5029094;28;20649;-59
2021/10/02 02:19:44;;;;;;;1.40;1.40;;;;;;;;;;5029558;28;20543;-59
2021/10/02 02:22:11;;;;;;;1.27;1.17;;;;;;;;;;5028379;28;20045;-59
2021/10/02 02:24:38;;;;;;;2.42;1.30;;;;;;;;;;5030286;28;20164;-59
2021/10/02 02:27:05;;;;;;;1.30;1.20;;;;;;;;;;5027794;28;20048;-59
2021/10/02 02:29:33;;;;;;;1.63;1.48;;;;;;;;;;5026597;28;20076;-59
2021/10/02 02:32:01;;;;;;;1.35;1.35;;;;;;;;;;5030039;28;20116;-59
2021/10/02 02:34:29;;;;;;;2.47;1.05;;;;;;;;;;5028198;28;20041;-59
2021/10/02 02:36:59;;;;;;;1.65;1.55;;;;;;;;;;5030281;28;20116;-59
2021/10/02 02:39:25;;;;;;;1.30;1.20;;;;;;;;;;5027501;28;20446;-59
2021/10/02 02:41:52;;;;;;;1.25;1.25;;;;;;;;;;5027396;28;20041;-57
2021/10/02 02:44:19;;;;;;;1.20;1.10;;;;;;;;;;5029726;28;20071;-59
2021/10/02 02:46:53;;;;;;;1.20;1.20;;;;;;;;;;5027361;28;20084;-59
2021/10/02 02:49:36;;;;;;;1.10;1.10;;;;;;;;;;5024111;28;20088;-59
2021/10/02 02:52:22;;;;;;;1.88;1.52;;;;;;;;;;5026082;28;20148;-59
2021/10/02 02:55:10;;;;;;;1.10;1.10;;;;;;;;;;5026679;28;20037;-59
2021/10/02 02:57:57;;;;;;;1.65;1.55;;;;;;;;;;5021452;28;20073;-58
2021/10/02 03:00:24;;;;;;;3.33;1.60;;;;;;;;;;5028071;28;20352;-59
2021/10/02 03:02:52;;;;;;;1.25;1.25;;;;;;;;;;5026907;28;20037;-57
2021/10/02 03:05:21;;;;;;;1.55;1.20;;;;;;;;;;5029735;28;20040;-59
2021/10/02 03:07:59;;;;;;;1.45;1.45;;;;;;;;;;5023745;28;20052;-60
2021/10/02 03:10:27;;;;;;;1.30;1.30;;;;;;;;;;5022070;28;20049;-60
2021/10/02 03:12:54;;;;;;;1.77;1.25;;;;;;;;;;5019660;28;20049;-59
2021/10/02 03:15:21;;;;;;;1.40;1.30;;;;;;;;;;5027143;28;20568;-57
2021/10/02 03:17:49;;;;;;;1.38;1.30;;;;;;;;;;5028388;28;20154;-59
2021/10/02 03:20:17;;;;;;;1.50;1.40;;;;;;;;;;5021104;28;20037;-59
2021/10/02 03:22:45;;;;;;;1.85;1.10;;;;;;;;;;5027510;28;20057;-59
2021/10/02 03:25:12;;;;;;;1.50;1.40;;;;;;;;;;5016498;28;20124;-60
2021/10/02 03:27:39;;;;;;;1.50;1.50;;;;;;;;;;5023197;28;20473;-60
2021/10/02 03:30:07;;;;;;;1.70;1.58;;;;;;;;;;5032231;28;20030;-59
2021/10/02 03:32:33;;;;;;;1.52;1.52;;;;;;;;;;5023230;28;20077;-60
2021/10/02 03:35:01;;;;;;;1.58;1.50;;;;;;;;;;5023019;28;20049;-60
2021/10/02 03:37:28;;;;;;;1.85;1.75;;;;;;;;;;5033636;28;20046;-59
2021/10/02 03:39:54;;;;;;;1.20;1.20;;;;;;;;;;5028647;28;20044;-58
2021/10/02 03:42:22;;;;;;;3.33;1.30;;;;;;;;;;5032372;28;20083;-60
2021/10/02 03:44:50;;;;;;;2.25;1.30;;;;;;;;;;5033167;28;20096;-61
2021/10/02 03:47:18;;;;;;;1.52;1.42;;;;;;;;;;5030670;28;20517;-60
2021/10/02 03:49:45;;;;;;;2.22;1.45;;;;;;;;;;5027691;28;20077;-60
2021/10/02 03:52:13;;;;;;;1.23;1.20;;;;;;;;;;5025616;28;20426;-58
2021/10/02 03:54:41;;;;;;;2.47;2.10;;;;;;;;;;5032635;28;20120;-60
2021/10/02 03:57:07;;;;;;;3.05;1.40;;;;;;;;;;5031139;28;20108;-60
2021/10/02 03:59:34;;;;;;;1.52;1.52;;;;;;;;;;5031221;28;20530;-57
2021/10/02 04:02:01;;;;;;;2.63;1.52;;;;;;;;;;5014480;28;20126;-60
2021/10/02 04:04:28;;;;;;;1.70;1.70;;;;;;;;;;5026943;28;20037;-60
2021/10/02 04:06:55;;;;;;;1.45;1.45;;;;;;;;;;5027326;28;20129;-61
2021/10/02 04:09:21;;;;;;;1.80;1.70;;;;;;;;;;5032721;28;20053;-59
2021/10/02 04:11:48;;;;;;;1.45;1.45;;;;;;;;;;5030677;28;20041;-56
2021/10/02 04:14:15;;;;;;;2.03;1.20;;;;;;;;;;5014447;28;20038;-60
2021/10/02 04:16:42;;;;;;;1.73;1.70;;;;;;;;;;5032870;28;20041;-60
2021/10/02 04:19:09;;;;;;;1.27;1.27;;;;;;;;;;5032122;28;20072;-60
2021/10/02 04:21:36;;;;;;;1.70;1.60;;;;;;;;;;5028620;28;20038;-58
2021/10/02 04:24:03;;;;;;;2.05;1.95;;;;;;;;;;5027666;28;20083;-59
2021/10/02 04:26:29;;;;;;;1.52;1.38;;;;;;;;;;5028798;28;20060;-60
2021/10/02 04:28:56;;;;;;;1.48;1.40;;;;;;;;;;5024676;28;20117;-61
2021/10/02 04:31:23;;;;;;;1.10;1.10;;;;;;;;;;5021041;28;20496;-60
2021/10/02 04:33:49;;;;;;;3.15;1.25;;;;;;;;;;5025802;28;20096;-60
2021/10/02 04:36:16;;;;;;;1.40;1.40;;;;;;;;;;5028494;28;20049;-61
2021/10/02 04:38:43;;;;;;;2.45;1.50;;;;;;;;;;5030648;28;20367;-61
2021/10/02 04:41:10;;;;;;;2.38;1.30;;;;;;;;;;5031311;28;20057;-59
2021/10/02 04:43:41;;;;;;;2.55;1.10;;;;;;;;;;5030467;28;20100;-60
2021/10/02 04:46:08;;;;;;;5.55;1.58;;;;;;;;;;5030944;28;20457;-61
2021/10/02 04:48:36;;;;;;;1.20;1.20;;;;;;;;;;5030010;28;20127;-61
2021/10/02 04:51:03;;;;;;;1.30;1.30;;;;;;;;;;5030373;28;20595;-60
2021/10/02 04:53:30;;;;;;;1.50;1.38;;;;;;;;;;5030918;28;20107;-61
2021/10/02 04:56:00;;;;;;;3.05;1.63;;;;;;;;;;5028859;28;20107;-60
2021/10/02 04:58:29;;;;;;;1.10;1.10;;;;;;;;;;5019039;28;20033;-60
2021/10/02 05:00:56;;;;;;;2.67;1.67;;;;;;;;;;5031574;28;20042;-61
2021/10/02 05:03:23;;;;;;;2.20;2.00;;;;;;;;;;5023685;28;20033;-60
2021/10/02 05:05:50;;;;;;;1.65;1.65;;;;;;;;;;5031783;28;20033;-60
2021/10/02 05:08:16;;;;;;;2.47;1.75;;;;;;;;;;5029591;28;20029;-60
2021/10/02 05:10:43;;;;;;;3.53;1.52;;;;;;;;;;5031459;28;20065;-60
2021/10/02 05:13:10;;;;;;;2.83;1.50;;;;;;;;;;5024411;28;20034;-60
2021/10/02 05:15:37;;;;;;;1.30;1.30;;;;;;;;;;5021182;28;20570;-61
2021/10/02 05:18:04;;;;;;;1.70;1.70;;;;;;;;;;5031202;28;20068;-61
2021/10/02 05:20:30;;;;;;;1.67;1.58;;;;;;;;;;5029225;28;20041;-56
2021/10/02 05:22:57;;;;;;;1.75;1.65;;;;;;;;;;5025867;28;20034;-60
2021/10/02 05:25:24;;;;;;;3.55;3.35;;;;;;;;;;5026531;28;20038;-60
2021/10/02 05:27:51;;;;;;;4.63;4.32;;;;;;;;;;5020244;28;20534;-60
2021/10/02 05:30:17;;;;;;;7.00;6.80;;;;;;;;;;5029776;28;20056;-60
2021/10/02 05:32:44;;;;;;;6.85;6.70;;;;;;;;;;5027025;28;20430;-60
2021/10/02 05:35:11;;;;;;;6.05;5.80;;;;;;;;;;5026352;28;20026;-60
2021/10/02 05:37:37;;;;;;;2.42;2.33;;;;;;;;;;5030997;28;20116;-60
2021/10/02 05:40:05;;;;;;;3.15;2.40;;;;;;;;;;5028313;28;20025;-60
2021/10/02 05:42:31;;;;;;;3.90;1.85;;;;;;;;;;5025760;28;20058;-60
2021/10/02 05:44:58;;;;;;;1.63;1.52;;;;;;;;;;5027445;28;20029;-60
2021/10/02 05:47:25;;;;;;;1.85;1.85;;;;;;;;;;5013041;28;20096;-60
2021/10/02 05:49:51;;;;;;;1.75;1.25;;;;;;;;;;5029883;28;20092;-60
2021/10/02 05:52:18;;;;;;;1.73;1.73;;;;;;;;;;5028752;28;20092;-60
2021/10/02 05:54:45;;;;;;;2.08;2.08;;;;;;;;;;5030734;28;20084;-60
2021/10/02 05:57:12;;;;;;;1.98;1.98;;;;;;;;;;5029316;28;20070;-61
2021/10/02 05:59:39;;;;;;;2.25;2.13;;;;;;;;;;5013001;28;20050;-60
2021/10/02 06:02:05;;;;;;;1.80;1.70;;;;;;;;;;5023367;28;20359;-60
2021/10/02 06:04:32;;;;;;;2.03;1.92;;;;;;;;;;5020075;28;20048;-60
2021/10/02 06:06:59;;;;;;;1.10;1.10;;;;;;;;;;5030532;28;20034;-60
2021/10/02 06:09:26;;;;;;;1.60;1.50;;;;;;;;;;5028105;28;20438;-60
2021/10/02 06:11:52;;;;;;;3.10;1.60;;;;;;;;;;5010632;28;20557;-60
2021/10/02 06:14:19;;;;;;;2.03;1.30;;;;;;;;;;5021006;28;20034;-60
2021/10/02 06:16:46;;;;;;;2.83;1.95;;;;;;;;;;5018698;28;20129;-60
2021/10/02 06:19:12;;;;;;;2.63;1.40;;;;;;;;;;5024853;28;20565;-60
2021/10/02 06:21:39;;;;;;;1.77;1.77;;;;;;;;;;5024129;28;20044;-59
2021/10/02 06:24:06;;;;;;;1.30;1.30;;;;;;;;;;5029095;28;20112;-60
2021/10/02 06:26:35;;;;;;;2.35;1.33;;;;;;;;;;5028916;28;20057;-60
2021/10/02 06:29:03;;;;;;;2.97;1.60;;;;;;;;;;5028628;28;20034;-60
2021/10/02 06:31:29;;;;;;;2.65;1.52;;;;;;;;;;5020957;28;20049;-60
2021/10/02 06:33:56;;;;;;;4.93;1.30;;;;;;;;;;5029710;28;20140;-59
2021/10/02 06:36:23;;;;;;;1.20;1.20;;;;;;;;;;5028493;28;20088;-60
2021/10/02 06:38:50;;;;;;;1.88;1.77;;;;;;;;;;5024165;28;20069;-60
2021/10/02 06:41:16;;;;;;;6.18;1.38;;;;;;;;;;5026971;28;20553;-60
2021/10/02 06:43:43;;;;;;;2.60;1.20;;;;;;;;;;5029345;28;20103;-60
2021/10/02 06:46:10;;;;;;;1.30;1.30;;;;;;;;;;5022063;28;20041;-60
2021/10/02 06:48:36;;;;;;;1.60;1.58;;;;;;;;;;5014972;28;20037;-60
2021/10/02 06:51:04;;;;;;;1.60;1.50;;;;;;;;;;5029287;28;20088;-60
2021/10/02 06:53:31;;;;;;;1.45;1.45;;;;;;;;;;5022628;28;20037;-59
2021/10/02 06:55:57;;;;;;;2.33;1.45;;;;;;;;;;5025789;28;20099;-59
2021/10/02 06:58:24;;;;;;;5.25;1.50;;;;;;;;;;5029174;28;20133;-60
2021/10/02 07:00:51;;;;;;;2.08;1.38;;;;;;;;;;5023498;28;20044;-59
2021/10/02 07:03:18;;;;;;;2.00;1.45;;;;;;;;;;5028547;28;20038;-60
2021/10/02 07:05:44;;;;;;;2.38;1.60;;;;;;;;;;5027224;28;20096;-60
2021/10/02 07:08:11;;;;;;;1.67;1.40;;;;;;;;;;5019764;28;20083;-59
2021/10/02 07:10:38;;;;;;;8.15;2.33;;;;;;;;;;5026466;28;20060;-60
2021/10/02 07:13:05;;;;;;;4.72;4.43;;;;;;;;;;5029333;28;20115;-60
2021/10/02 07:15:32;;;;;;;3.83;3.53;;;;;;;;;;5028160;28;20045;-61
2021/10/02 07:17:59;;;;;;;6.28;6.05;;;;;;;;;;5027542;28;20120;-60
2021/10/02 07:20:27;;;;;;;5.35;5.07;;;;;;;;;;5026795;28;20434;-60
2021/10/02 07:22:53;;;;;;;3.53;2.90;;;;;;;;;;5030584;28;20417;-61
2021/10/02 07:25:23;;;;;;;2.60;2.25;;;;;;;;;;5028736;28;20046;-61
2021/10/02 07:27:50;;;;;;;2.22;2.00;;;;;;;;;;5015577;28;20034;-60
2021/10/02 07:30:17;;;;;;;1.95;1.95;;;;;;;;;;5025041;28;20048;-61
2021/10/02 07:32:44;;;;;;;2.03;1.83;;;;;;;;;;5027080;28;20095;-60
2021/10/02 07:35:12;;;;;;;1.70;1.60;;;;;;;;;;5030442;28;20540;-60
2021/10/02 07:37:38;;;;;;;8.05;1.60;;;;;;;;;;5026531;28;20420;-61
2021/10/02 07:40:07;;;;;;;1.90;1.83;;;;;;;;;;5028924;28;20072;-60
2021/10/02 07:42:35;;;;;;;1.50;1.33;;;;;;;;;;5027749;28;20128;-61
2021/10/02 07:45:04;;;;;;;1.50;1.40;;;;;;;;;;5029194;28;20038;-60
2021/10/02 07:47:31;;;;;;;1.10;1.10;;;;;;;;;;5018222;28;20081;-61
2021/10/02 07:50:00;;;;;;;4.20;1.30;;;;;;;;;;5022306;28;20038;-61
2021/10/02 07:52:27;;;;;;;1.85;1.40;;;;;;;;;;5018226;28;20371;-59
2021/10/02 07:54:54;;;;;;;1.13;1.13;;;;;;;;;;5023484;28;20077;-61
2021/10/02 07:57:20;;;;;;;1.20;1.20;;;;;;;;;;5019174;28;20056;-60
2021/10/02 07:59:47;;;;;;;1.50;1.20;;;;;;;;;;5024008;28;20092;-60
2021/10/02 08:02:18;;;;;;;1.45;1.00;;;;;;;;;;5024867;28;20037;-61
2021/10/02 08:04:45;;;;;;;4.97;1.02;;;;;;;;;;5029061;28;20121;-61
2021/10/02 08:07:15;;;;;;;1.60;1.00;;;;;;;;;;5027357;28;20030;-61
2021/10/02 08:09:42;;;;;;;0.98;0.98;;;;;;;;;;5029153;28;20506;-61
2021/10/02 08:12:09;;;;;;;1.25;1.20;;;;;;;;;;5027940;28;20483;-61
2021/10/02 08:14:38;;;;;;;2.08;1.20;;;;;;;;;;5025716;28;20041;-61
2021/10/02 08:17:07;;;;;;;2.08;1.10;;;;;;;;;;5016628;28;20045;-60
2021/10/02 08:19:34;;;;;;;4.78;1.02;;;;;;;;;;5030603;28;20111;-61
2021/10/02 08:22:03;;;;;;;4.20;1.15;;;;;;;;;;5031236;28;20470;-60
2021/10/02 08:24:31;;;;;;;1.65;1.42;;;;;;;;;;5021577;28;20041;-61
2021/10/02 08:26:58;;;;;;;1.27;0.90;;;;;;;;;;5024759;28;20402;-61
2021/10/02 08:29:25;;;;;;;1.60;0.90;;;;;;;;;;5032382;28;20045;-60
2021/10/02 08:31:52;;;;;;;1.85;1.30;;;;;;;;;;5028914;28;20046;-61
2021/10/02 08:34:24;;;;;;;0.90;0.90;;;;;;;;;;5032532;28;20049;-60
2021/10/02 08:36:51;;;;;;;1.77;0.90;;;;;;;;;;5032154;28;20041;-60
2021/10/02 08:39:18;;;;;;;1.73;0.80;;;;;;;;;;5031624;28;20037;-60
2021/10/02 08:41:45;;;;;;;0.80;0.80;;;;;;;;;;5028840;28;20073;-61
2021/10/02 08:44:19;;;;;;;2.30;1.00;;;;;;;;;;5031626;28;20462;-58
2021/10/02 08:46:46;;;;;;;0.90;0.90;;;;;;;;;;5029895;28;20058;-60
2021/10/02 08:49:33;;;;;;;0.90;0.90;;;;;;;;;;5032227;28;20052;-60
2021/10/02 08:52:01;;;;;;;0.80;0.80;;;;;;;;;;5028490;28;20038;-61
2021/10/02 08:54:28;;;;;;;0.90;0.90;;;;;;;;;;5030362;28;20536;-60
2021/10/02 08:56:55;;;;;;;7.43;1.20;;;;;;;;;;5031158;28;20045;-61
2021/10/02 08:59:22;;;;;;;0.88;0.88;;;;;;;;;;5029553;28;20033;-61
2021/10/02 09:01:49;;;;;;;2.40;0.90;;;;;;;;;;5031350;28;20129;-60
2021/10/02 09:04:16;;;;;;;0.88;0.88;;;;;;;;;;5029341;28;20128;-60
2021/10/02 09:06:42;;;;;;;6.57;0.95;;;;;;;;;;5025123;28;20056;-61
2021/10/02 09:09:09;;;;;;;1.90;0.90;;;;;;;;;;5025275;28;20092;-59
2021/10/02 09:11:36;;;;;;;0.90;0.90;;;;;;;;;;5025308;28;20069;-60
2021/10/02 09:14:03;;;;;;;2.45;0.90;;;;;;;;;;5015174;28;20050;-60
2021/10/02 09:16:30;;;;;;;1.63;1.02;;;;;;;;;;5031813;28;20034;-61
2021/10/02 09:18:57;;;;;;;0.90;0.90;;;;;;;;;;5029052;28;20053;-60
2021/10/02 09:21:24;;;;;;;0.90;0.90;;;;;;;;;;5029223;28;20501;-61
2021/10/02 09:23:51;;;;;;;0.80;0.80;;;;;;;;;;5026722;28;20553;-61
2021/10/02 09:26:37;;;;;;;0.85;0.73;;;;;;;;;;5025725;28;20500;-61
2021/10/02 09:29:04;;;;;;;0.80;0.80;;;;;;;;;;5031095;28;20044;-60
2021/10/02 09:31:31;;;;;;;2.53;0.80;;;;;;;;;;5030494;28;20476;-60
2021/10/02 09:33:59;;;;;;;1.05;0.95;;;;;;;;;;5014139;28;20046;-61
2021/10/02 09:36:26;;;;;;;0.85;0.85;;;;;;;;;;5031413;28;20037;-60
2021/10/02 09:38:53;;;;;;;0.70;0.70;;;;;;;;;;5022374;28;20090;-57
2021/10/02 09:41:21;;;;;;;1.92;0.88;;;;;;;;;;5029532;28;20144;-61
2021/10/02 09:43:49;;;;;;;1.05;0.93;;;;;;;;;;5028607;28;20062;-60
2021/10/02 09:46:16;;;;;;;1.60;0.80;;;;;;;;;;5013049;28;20108;-60
2021/10/02 09:48:52;;;;;;;0.70;0.70;;;;;;;;;;5024484;28;20030;-61
2021/10/02 09:51:20;;;;;;;2.67;0.90;;;;;;;;;;5020730;28;20037;-61
2021/10/02 09:53:47;;;;;;;2.22;1.23;;;;;;;;;;5030846;28;20099;-60
2021/10/02 09:56:14;;;;;;;0.80;0.80;;;;;;;;;;5028635;28;20079;-60
2021/10/02 09:58:41;;;;;;;1.10;0.80;;;;;;;;;;5030038;28;20100;-61
2021/10/02 10:01:20;;;;;;;0.90;0.90;;;;;;;;;;5020187;28;20037;-61
2021/10/02 10:03:48;;;;;;;2.50;0.80;;;;;;;;;;5023536;28;20046;-60
2021/10/02 10:06:16;;;;;;;0.90;0.90;;;;;;;;;;5016041;28;20037;-58
2021/10/02 10:08:43;;;;;;;2.15;0.93;;;;;;;;;;5023794;28;20096;-60
2021/10/02 10:11:11;;;;;;;0.88;0.82;;;;;;;;;;5027127;28;20041;-60
2021/10/02 10:13:39;;;;;;;0.90;0.90;;;;;;;;;;5018250;28;20050;-60
2021/10/02 10:16:09;;;;;;;0.90;0.90;;;;;;;;;;5022508;28;20049;-59
2021/10/02 10:18:39;;;;;;;1.05;1.00;;;;;;;;;;5018447;28;20053;-59
2021/10/02 10:21:08;;;;;;;1.02;0.90;;;;;;;;;;5023624;28;20046;-60
2021/10/02 10:23:36;;;;;;;0.80;0.80;;;;;;;;;;5018793;28;20042;-60
2021/10/02 10:26:04;;;;;;;0.80;0.80;;;;;;;;;;5024623;28;20101;-60
2021/10/02 10:28:33;;;;;;;1.92;0.80;;;;;;;;;;5029089;28;20034;-60
2021/10/02 10:31:10;;;;;;;0.80;0.80;;;;;;;;;;5020284;28;20437;-60
2021/10/02 10:33:38;;;;;;;0.95;0.80;;;;;;;;;;5025599;28;20065;-59
2021/10/02 10:36:05;;;;;;;1.73;0.90;;;;;;;;;;5025451;28;20532;-60
2021/10/02 10:38:35;;;;;;;3.20;0.80;;;;;;;;;;5030378;28;20536;-60
2021/10/02 10:41:03;;;;;;;0.80;0.80;;;;;;;;;;5022684;28;20053;-60
2021/10/02 10:43:31;;;;;;;3.28;0.77;;;;;;;;;;5020467;28;20030;-59
2021/10/02 10:46:08;;;;;;;1.50;1.00;;;;;;;;;;5030031;28;20068;-59
2021/10/02 10:48:35;;;;;;;1.95;0.70;;;;;;;;;;5027217;28;20033;-61
2021/10/02 10:51:04;;;;;;;1.08;0.70;;;;;;;;;;5019838;28;20034;-61
2021/10/02 10:53:38;;;;;;;1.42;0.80;;;;;;;;;;5029311;28;20045;-60
2021/10/02 10:56:06;;;;;;;1.27;1.17;;;;;;;;;;5028913;28;20041;-60
2021/10/02 10:58:33;;;;;;;0.70;0.70;;;;;;;;;;5028735;28;20128;-60
2021/10/02 11:01:01;;;;;;;0.70;0.70;;;;;;;;;;5026879;28;20116;-60
2021/10/02 11:03:37;;;;;;;1.65;0.90;;;;;;;;;;5014129;28;20042;-60
2021/10/02 11:06:05;;;;;;;1.55;0.80;;;;;;;;;;5022890;28;20379;-60
2021/10/02 11:08:50;;;;;;;0.80;0.80;;;;;;;;;;5026020;28;20457;-58
2021/10/02 11:11:37;;;;;;;2.08;0.80;;;;;;;;;;5028685;28;20390;-61
2021/10/02 11:14:04;;;;;;;0.90;0.90;;;;;;;;;;5025036;28;20048;-61
2021/10/02 11:16:33;;;;;;;2.58;1.10;;;;;;;;;;5028149;28;20053;-58
2021/10/02 11:18:59;;;;;;;0.82;0.82;;;;;;;;;;5024890;28;20033;-61
2021/10/02 11:21:30;;;;;;;1.45;0.90;;;;;;;;;;5025469;28;20076;-60
2021/10/02 11:24:00;;;;;;;3.22;0.90;;;;;;;;;;5009925;28;20145;-60
2021/10/02 11:26:28;;;;;;;0.90;0.90;;;;;;;;;;5029070;28;20084;-58
2021/10/02 11:28:58;;;;;;;3.53;0.80;;;;;;;;;;5022156;28;20037;-61
2021/10/02 11:31:25;;;;;;;2.50;0.80;;;;;;;;;;5015989;28;20065;-60
2021/10/02 11:33:53;;;;;;;1.00;1.00;;;;;;;;;;5025814;28;20034;-60
2021/10/02 11:36:30;;;;;;;1.08;0.90;;;;;;;;;;5028841;28;20470;-60
2021/10/02 11:39:11;;;;;;;1.70;0.80;;;;;;;;;;5028590;28;20058;-59
2021/10/02 11:41:44;;;;;;;3.35;0.90;;;;;;;;;;5024321;28;20045;-61
2021/10/02 11:44:12;;;;;;;1.98;0.90;;;;;;;;;;5028625;28;20112;-54
2021/10/02 11:46:39;;;;;;;2.17;1.30;;;;;;;;;;5024224;28;20072;-60
2021/10/02 11:49:17;;;;;;;0.85;0.82;;;;;;;;;;5014346;28;20448;-58
2021/10/02 11:52:02;;;;;;;0.90;0.90;;;;;;;;;;5032842;28;20045;-62
2021/10/02 11:54:29;;;;;;;0.80;0.80;;;;;;;;;;5032481;28;20049;-58
2021/10/02 11:57:12;;;;;;;1.50;1.40;;;;;;;;;;5031799;28;20060;-58
2021/10/02 11:59:43;;;;;;;2.33;0.90;;;;;;;;;;5020933;28;20045;-61
2021/10/02 12:02:10;;;;;;;0.80;0.80;;;;;;;;;;5025516;28;20069;-54
2021/10/02 12:04:37;;;;;;;9.55;1.42;;;;;;;;;;5032328;28;20049;-57
2021/10/02 12:07:04;;;;;;;9.27;2.15;;;;;;;;;;5032705;28;20052;-58
2021/10/02 12:09:31;;;;;;;1.55;1.20;;;;;;;;;;5032708;28;20045;-60
2021/10/02 12:11:58;;;;;;;1.05;0.90;;;;;;;;;;5022292;28;20642;-60
2021/10/02 12:14:26;;;;;;;2.78;1.10;;;;;;;;;;5030713;28;20053;-60
2021/10/02 12:16:54;;;;;;;1.25;1.10;;;;;;;;;;5032654;28;20096;-60
2021/10/02 12:19:21;;;;;;;1.23;1.10;;;;;;;;;;5031906;28;20711;-61
2021/10/02 12:21:49;;;;;;;1.10;1.00;;;;;;;;;;5026875;28;20579;-61
2021/10/02 12:24:15;;;;;;;5.00;1.00;;;;;;;;;;5026988;28;20096;-61
2021/10/02 12:26:44;;;;;;;1.92;1.67;;;;;;;;;;5030284;28;20083;-61
2021/10/02 12:29:12;;;;;;;1.73;0.95;;;;;;;;;;5030226;28;20117;-59
2021/10/02 12:31:50;;;;;;;2.05;1.10;;;;;;;;;;5031920;28;20041;-61
2021/10/02 12:34:21;;;;;;;2.00;1.10;;;;;;;;;;5030591;28;20045;-61
2021/10/02 12:36:49;;;;;;;1.42;1.10;;;;;;;;;;5023169;28;20049;-60
2021/10/02 12:39:17;;;;;;;0.90;0.90;;;;;;;;;;5032332;28;20043;-60
2021/10/02 12:41:45;;;;;;;2.25;1.10;;;;;;;;;;5030995;28;20042;-61
2021/10/02 12:44:15;;;;;;;1.80;1.10;;;;;;;;;;5018066;28;20461;-60
2021/10/02 12:46:43;;;;;;;1.35;1.25;;;;;;;;;;5026975;28;20121;-60
2021/10/02 12:49:11;;;;;;;1.15;1.10;;;;;;;;;;5029833;28;20037;-58
2021/10/02 12:51:38;;;;;;;1.60;1.00;;;;;;;;;;5026253;28;20041;-60
2021/10/02 12:54:06;;;;;;;0.90;0.90;;;;;;;;;;5023480;28;20470;-61
2021/10/02 12:56:33;;;;;;;1.25;1.00;;;;;;;;;;5021328;28;20530;-60
2021/10/02 12:59:15;;;;;;;1.08;1.00;;;;;;;;;;5029849;28;20068;-60
2021/10/02 13:01:49;;;;;;;1.17;1.08;;;;;;;;;;5020785;28;20061;-60
2021/10/02 13:04:17;;;;;;;1.88;1.13;;;;;;;;;;5019407;28;20038;-60
2021/10/02 13:06:51;;;;;;;6.53;1.10;;;;;;;;;;5027178;28;20052;-61
2021/10/02 13:09:18;;;;;;;1.00;1.00;;;;;;;;;;5044255;28;20077;-61
2021/10/02 13:11:47;;;;;;;1.00;1.00;;;;;;;;;;5030136;28;20061;-59
2021/10/02 13:14:34;;;;;;;4.32;0.90;;;;;;;;;;5029962;28;20120;-59
2021/10/02 13:17:05;;;;;;;1.27;1.05;;;;;;;;;;5029562;28;20033;-60
2021/10/02 13:19:33;;;;;;;1.95;1.33;;;;;;;;;;5027783;28;20046;-60
2021/10/02 13:22:10;;;;;;;1.30;1.23;;;;;;;;;;5024883;28;20077;-60
2021/10/02 13:24:37;;;;;;;1.08;1.08;;;;;;;;;;5023345;28;20037;-60
2021/10/02 13:27:08;;;;;;;1.05;1.00;;;;;;;;;;5028344;28;20354;-58
2021/10/02 13:29:35;;;;;;;1.10;1.10;;;;;;;;;;5015560;28;20065;-60
2021/10/02 13:32:14;;;;;;;3.17;1.13;;;;;;;;;;5030683;28;20037;-60
2021/10/02 13:34:51;;;;;;;1.58;1.45;;;;;;;;;;5029138;28;20042;-60
2021/10/02 13:37:24;;;;;;;1.60;1.48;;;;;;;;;;5029603;28;20049;-58
2021/10/02 13:39:52;;;;;;;2.65;1.52;;;;;;;;;;5027895;28;20456;-60
2021/10/02 13:42:19;;;;;;;1.00;1.00;;;;;;;;;;5019846;28;20585;-61
2021/10/02 13:44:51;;;;;;;1.77;1.05;;;;;;;;;;5026707;28;20381;-60
2021/10/02 13:47:20;;;;;;;1.20;1.20;;;;;;;;;;5023679;28;20054;-56
2021/10/02 13:49:47;;;;;;;1.10;1.10;;;;;;;;;;5016385;28;20112;-60
2021/10/02 13:52:14;;;;;;;24.05;3.08;;;;;;;;;;5023706;28;20040;-60
2021/10/02 13:54:41;;;;;;;2.03;1.38;;;;;;;;;;5017050;28;20049;-61
2021/10/02 13:57:08;;;;;;;2.40;1.15;;;;;;;;;;5019462;28;20558;-59
2021/10/02 13:59:35;;;;;;;2.15;1.02;;;;;;;;;;5020669;28;20029;-60
2021/10/02 14:02:02;;;;;;;50.35;4.85;;;;;;;;;;5021464;28;20049;-59
2021/10/02 14:04:29;;;;;;;1.17;1.17;;;;;;;;;;5028060;28;20039;-61
2021/10/02 14:06:55;;;;;;;3.28;1.48;;;;;;;;;;5023769;28;20470;-59
2021/10/02 14:09:22;;;;;;;1.63;1.00;;;;;;;;;;5030416;28;20103;-59
2021/10/02 14:11:49;;;;;;;2.00;1.00;;;;;;;;;;5030541;28;20120;-59
2021/10/02 14:14:16;;;;;;;1.88;1.20;;;;;;;;;;5029232;28;20111;-60
2021/10/02 14:16:42;;;;;;;4.00;2.28;;;;;;;;;;5028618;28;20038;-59
2021/10/02 14:19:09;;;;;;;1.35;1.25;;;;;;;;;;5023544;28;20054;-60
2021/10/02 14:21:36;;;;;;;1.38;1.30;;;;;;;;;;5027274;28;20073;-61
2021/10/02 14:24:03;;;;;;;1.52;1.13;;;;;;;;;;5024917;28;20057;-58
2021/10/02 14:26:29;;;;;;;4.07;0.95;;;;;;;;;;5027775;28;20087;-60
2021/10/02 14:28:56;;;;;;;3.80;1.08;;;;;;;;;;5026936;28;20061;-58
2021/10/02 14:31:23;;;;;;;1.33;1.10;;;;;;;;;;5025510;28;20030;-60
2021/10/02 14:33:50;;;;;;;3.97;1.60;;;;;;;;;;5025384;28;20128;-60
2021/10/02 14:36:17;;;;;;;2.78;1.60;;;;;;;;;;5027064;28;20033;-57
2021/10/02 14:38:44;;;;;;;3.55;1.20;;;;;;;;;;5013932;28;20560;-60
2021/10/02 14:41:11;;;;;;;4.90;2.40;;;;;;;;;;5026252;28;20142;-57
2021/10/02 14:43:38;;;;;;;1.60;1.33;;;;;;;;;;5027623;28;20111;-59
2021/10/02 14:46:06;;;;;;;3.95;1.80;;;;;;;;;;5028784;28;20040;-59
2021/10/02 14:48:33;;;;;;;2.33;2.13;;;;;;;;;;5027339;28;20037;-59
2021/10/02 14:51:00;;;;;;;1.70;1.60;;;;;;;;;;5029009;28;20073;-59
2021/10/02 14:53:28;;;;;;;1.88;1.77;;;;;;;;;;5027842;28;20053;-59
2021/10/02 14:55:54;;;;;;;2.45;1.70;;;;;;;;;;5028208;28;20770;-59
2021/10/02 14:58:21;;;;;;;3.15;2.00;;;;;;;;;;5024292;28;20089;-59
2021/10/02 15:00:49;;;;;;;1.63;1.52;;;;;;;;;;5027759;28;20079;-59
2021/10/02 15:03:16;;;;;;;1.38;1.27;;;;;;;;;;5027918;28;20048;-58
2021/10/02 15:05:43;;;;;;;1.98;1.77;;;;;;;;;;5027260;28;20120;-59
2021/10/02 15:08:11;;;;;;;11.35;3.05;;;;;;;;;;5017002;28;20034;-59
2021/10/02 15:10:38;;;;;;;10.45;1.70;;;;;;;;;;5024251;28;20049;-60
2021/10/02 15:13:05;;;;;;;1.15;1.15;;;;;;;;;;5020367;28;20152;-58
2021/10/02 15:15:31;;;;;;;1.20;1.10;;;;;;;;;;5026352;28;20509;-59
2021/10/02 15:17:58;;;;;;;4.65;1.10;;;;;;;;;;5027070;28;20056;-59
2021/10/02 15:20:25;;;;;;;2.67;1.10;;;;;;;;;;5027088;28;20093;-59
2021/10/02 15:22:55;;;;;;;2.55;1.50;;;;;;;;;;5029310;28;20092;-59
2021/10/02 15:25:22;;;;;;;3.45;1.35;;;;;;;;;;5027533;28;20485;-60
2021/10/02 15:28:00;;;;;;;2.35;1.33;;;;;;;;;;5012435;28;20067;-60
2021/10/02 15:30:27;;;;;;;2.17;1.23;;;;;;;;;;5022338;28;20038;-59
2021/10/02 15:32:55;;;;;;;1.45;1.40;;;;;;;;;;5022987;28;20065;-59
2021/10/02 15:35:22;;;;;;;1.05;1.05;;;;;;;;;;5029720;28;20033;-61
2021/10/02 15:37:49;;;;;;;3.22;1.25;;;;;;;;;;5026454;28;20046;-60
2021/10/02 15:40:17;;;;;;;1.73;1.63;;;;;;;;;;5011560;28;20057;-60
2021/10/02 15:42:50;;;;;;;2.33;1.10;;;;;;;;;;5021142;28;20061;-60
2021/10/02 15:45:18;;;;;;;0.90;0.90;;;;;;;;;;5017737;28;20044;-59
2021/10/02 15:47:45;;;;;;;1.60;1.33;;;;;;;;;;5025453;28;20127;-60
2021/10/02 15:50:11;;;;;;;1.50;1.40;;;;;;;;;;5025358;28;20064;-60
2021/10/02 15:52:39;;;;;;;1.90;1.02;;;;;;;;;;5014474;28;20629;-60